Time;durP1;ratioP1;P1;durP2;ratioP2;P2;SDS_P1;SDS_P2;PMS_P1;PMS_P2;Temp;Humidity;BMP_temperature;BMP_pressure;BME280_temperature;BME280_humidity;BME280_pressure;Samples;Min_cycle;Max_cycle;Signal;HPM_P1;HPM_P2
2023/07/07 00:00:36;;;;;;;4.05;2.20;;;;;;;13.58;100.00;99007.84;5031299;28;20033;-63
2023/07/07 00:03:02;;;;;;;5.28;2.20;;;;;;;13.62;100.00;98997.34;5032138;28;20480;-63
2023/07/07 00:05:28;;;;;;;7.30;2.85;;;;;;;13.62;100.00;98999.25;5026007;28;20041;-63
2023/07/07 00:07:53;;;;;;;6.18;2.42;;;;;;;13.51;100.00;99000.78;5031261;28;20029;-63
2023/07/07 00:10:19;;;;;;;5.28;2.83;;;;;;;13.43;100.00;99001.84;5032265;28;20025;-57
2023/07/07 00:12:46;;;;;;;5.30;2.90;;;;;;;13.43;100.00;99001.84;5027107;28;20029;-58
2023/07/07 00:15:12;;;;;;;4.28;2.63;;;;;;;13.42;100.00;99004.81;5012929;28;20094;-58
2023/07/07 00:17:41;;;;;;;3.67;2.28;;;;;;;13.45;100.00;99013.34;5029793;28;20029;-58
2023/07/07 00:20:09;;;;;;;3.58;2.45;;;;;;;13.41;100.00;99003.94;5028345;28;20120;-58
2023/07/07 00:22:35;;;;;;;9.33;2.23;;;;;;;13.40;100.00;99015.06;5002072;28;20505;-58
2023/07/07 00:25:05;;;;;;;5.38;2.42;;;;;;;13.38;100.00;99010.66;5007372;28;20026;-58
2023/07/07 00:27:31;;;;;;;5.68;1.88;;;;;;;13.30;100.00;99002.75;5023525;28;20396;-58
2023/07/07 00:29:56;;;;;;;7.20;2.13;;;;;;;13.34;100.00;99009.44;5027547;28;20058;-58
2023/07/07 00:32:22;;;;;;;7.68;2.63;;;;;;;13.21;100.00;99008.63;5030136;28;20029;-58
2023/07/07 00:34:47;;;;;;;6.82;2.53;;;;;;;13.17;100.00;99013.66;5024136;28;20060;-58
2023/07/07 00:37:13;;;;;;;5.45;2.40;;;;;;;13.07;100.00;99010.53;5014600;28;20017;-58
2023/07/07 00:39:38;;;;;;;4.47;2.70;;;;;;;13.01;100.00;99009.53;5026891;28;20029;-58
2023/07/07 00:42:04;;;;;;;5.10;2.70;;;;;;;13.05;100.00;99010.78;5042001;28;20388;-58
2023/07/07 00:45:05;;;;;;;4.80;2.25;;;;;;;12.98;100.00;99009.97;5030970;28;20055;-57
2023/07/07 00:47:31;;;;;;;4.47;2.55;;;;;;;12.88;100.00;99012.28;5011693;28;20036;-58
2023/07/07 00:49:57;;;;;;;5.50;2.45;;;;;;;12.81;100.00;99025.91;5025096;28;20025;-58
2023/07/07 00:52:22;;;;;;;4.43;2.38;;;;;;;12.92;100.00;99025.22;5025605;28;20021;-57
2023/07/07 00:54:48;;;;;;;11.15;2.65;;;;;;;12.89;100.00;99025.66;5025311;28;20036;-58
2023/07/07 00:57:13;;;;;;;7.18;2.85;;;;;;;12.82;100.00;99024.84;5031969;28;20041;-58
2023/07/07 00:59:42;;;;;;;4.93;2.90;;;;;;;12.68;100.00;99024.03;5013259;28;20461;-58
2023/07/07 01:02:15;;;;;;;7.50;2.90;;;;;;;12.67;100.00;99030.50;5025132;28;20377;-58
2023/07/07 01:04:48;;;;;;;7.32;3.20;;;;;;;12.58;100.00;99029.06;5032948;28;20062;-59
2023/07/07 01:07:20;;;;;;;4.13;2.75;;;;;;;12.63;100.00;99033.88;5028650;28;20025;-58
2023/07/07 01:09:45;;;;;;;5.78;3.25;;;;;;;12.59;100.00;99030.72;5030130;28;20068;-58
2023/07/07 01:12:12;;;;;;;6.20;3.08;;;;;;;12.50;100.00;99034.72;5005279;28;20112;-58
2023/07/07 01:14:38;;;;;;;8.98;3.05;;;;;;;12.55;100.00;99034.06;5026872;28;20030;-58
2023/07/07 01:17:17;;;;;;;8.93;2.95;;;;;;;12.50;100.00;99040.97;5022132;28;20029;-59
2023/07/07 01:19:57;;;;;;;7.13;3.15;;;;;;;12.36;100.00;99038.47;5013475;28;20480;-58
2023/07/07 01:22:38;;;;;;;7.05;3.05;;;;;;;12.35;100.00;99037.63;5019832;28;20037;-62
2023/07/07 01:25:07;;;;;;;5.35;2.95;;;;;;;12.42;100.00;99038.47;5025824;28;20107;-58
2023/07/07 01:28:00;;;;;;;7.35;2.72;;;;;;;12.40;100.00;99037.84;5013643;28;20037;-58
2023/07/07 01:30:29;;;;;;;5.68;2.83;;;;;;;12.36;100.00;99033.03;4984117;28;20073;-59
2023/07/07 01:32:54;;;;;;;5.70;3.00;;;;;;;12.30;100.00;99039.31;5023677;28;20041;-58
2023/07/07 01:35:21;;;;;;;5.25;2.60;;;;;;;12.27;100.00;99035.97;5022262;28;20033;-58
2023/07/07 01:37:56;;;;;;;7.95;3.20;;;;;;;12.41;100.00;99023.22;5012325;28;20018;-59
2023/07/07 01:40:33;;;;;;;6.32;2.75;;;;;;;12.31;100.00;99028.22;5030871;28;20022;-58
2023/07/07 01:43:07;;;;;;;6.55;2.92;;;;;;;12.25;100.00;99031.78;5031260;28;20026;-58
2023/07/07 01:45:44;;;;;;;5.22;2.85;;;;;;;12.17;100.00;99032.81;5025596;28;20029;-58
2023/07/07 01:48:23;;;;;;;5.85;2.47;;;;;;;12.15;100.00;99036.78;5027229;28;20048;-58
2023/07/07 01:50:51;;;;;;;9.40;2.95;;;;;;;12.16;100.00;99033.06;5006503;28;20033;-59
2023/07/07 01:53:21;;;;;;;3.33;2.05;;;;;;;12.11;100.00;99040.97;5029620;28;20029;-57
2023/07/07 01:55:55;;;;;;;4.90;2.33;;;;;;;12.03;100.00;99034.69;5026591;28;20029;-57
2023/07/07 01:58:21;;;;;;;4.78;2.55;;;;;;;12.00;100.00;99034.28;5028452;28;20499;-57
2023/07/07 02:00:50;;;;;;;5.35;2.30;;;;;;;12.03;100.00;99034.69;5028461;28;20025;-57
2023/07/07 02:03:17;;;;;;;3.65;2.22;;;;;;;12.00;100.00;99032.41;5025038;28;20037;-57
2023/07/07 02:05:42;;;;;;;4.53;2.25;;;;;;;11.96;100.00;99035.72;5028597;28;20087;-57
2023/07/07 02:08:08;;;;;;;7.40;2.08;;;;;;;11.88;100.00;99028.63;5020495;28;20022;-57
2023/07/07 02:10:33;;;;;;;5.15;2.33;;;;;;;11.78;100.00;99023.56;5015904;28;20439;-57
2023/07/07 02:12:59;;;;;;;6.47;2.60;;;;;;;11.73;100.00;99034.19;5028823;28;20079;-57
2023/07/07 02:15:24;;;;;;;5.00;2.60;;;;;;;11.68;100.00;99030.44;5023713;28;20467;-57
2023/07/07 02:17:50;;;;;;;3.70;2.08;;;;;;;11.67;100.00;99031.47;5022049;28;20446;-56
2023/07/07 02:20:15;;;;;;;4.95;2.50;;;;;;;11.63;100.00;99031.91;5017716;28;20037;-57
2023/07/07 02:22:47;;;;;;;5.47;2.25;;;;;;;11.65;100.00;99030.84;5037293;28;20037;-57
2023/07/07 02:25:12;;;;;;;6.40;2.97;;;;;;;11.62;100.00;99032.09;5022655;28;20481;-57
2023/07/07 02:27:38;;;;;;;5.85;2.65;;;;;;;11.61;100.00;99031.25;5028381;28;20028;-57
2023/07/07 02:30:04;;;;;;;4.97;2.42;;;;;;;11.58;100.00;99026.25;5030255;28;20102;-57
2023/07/07 02:32:29;;;;;;;4.65;2.45;;;;;;;11.52;100.00;99032.47;5025760;28;20017;-58
2023/07/07 02:34:57;;;;;;;5.68;2.97;;;;;;;11.48;100.00;99033.94;5022736;28;20120;-57
2023/07/07 02:37:23;;;;;;;4.63;2.50;;;;;;;11.47;100.00;99024.09;5012222;28;20477;-57
2023/07/07 02:39:49;;;;;;;5.72;2.55;;;;;;;11.45;100.00;99022.63;5037121;28;20018;-66
2023/07/07 02:42:15;;;;;;;3.85;2.72;;;;;;;11.44;100.00;99032.66;5032756;28;20029;-62
2023/07/07 02:44:41;;;;;;;5.25;2.22;;;;;;;11.36;100.00;99025.53;5034047;28;20044;-63
2023/07/07 02:47:07;;;;;;;4.68;2.47;;;;;;;11.57;100.00;99029.97;5024295;28;20029;-62
2023/07/07 02:49:34;;;;;;;3.90;2.50;;;;;;;11.55;100.00;99029.38;5028602;28;20049;-62
2023/07/07 02:51:59;;;;;;;6.20;2.67;;;;;;;11.56;100.00;99032.91;5019421;28;20524;-62
2023/07/07 02:54:25;;;;;;;6.90;2.85;;;;;;;11.50;100.00;99033.72;5019653;28;20366;-61
2023/07/07 02:56:51;;;;;;;7.40;1.98;;;;;;;11.50;100.00;99031.84;5034649;28;20440;-62
2023/07/07 02:59:16;;;;;;;5.50;2.70;;;;;;;11.29;100.00;99027.41;5025815;28;20487;-62
2023/07/07 03:01:45;;;;;;;4.97;2.17;;;;;;;11.23;100.00;99022.78;5028743;28;20029;-62
2023/07/07 03:04:12;;;;;;;5.17;3.00;;;;;;;11.29;100.00;99026.56;5026378;28;20033;-62
2023/07/07 03:06:39;;;;;;;7.35;3.03;;;;;;;11.28;100.00;99030.31;5025117;28;20105;-62
2023/07/07 03:09:05;;;;;;;5.15;2.55;;;;;;;11.18;100.00;99023.38;5030583;28;20029;-62
2023/07/07 03:11:30;;;;;;;6.00;2.78;;;;;;;11.17;100.00;99027.13;5032958;28;20033;-62
2023/07/07 03:13:56;;;;;;;5.65;2.95;;;;;;;11.15;100.00;99034.63;5020296;28;20549;-62
2023/07/07 03:16:27;;;;;;;5.10;2.75;;;;;;;11.19;100.00;99038.59;5035317;28;20025;-62
2023/07/07 03:18:55;;;;;;;5.93;3.17;;;;;;;11.22;100.00;99041.97;5013070;28;20029;-62
2023/07/07 03:21:22;;;;;;;5.30;3.00;;;;;;;11.24;100.00;99050.69;5040195;28;20022;-62
2023/07/07 03:23:50;;;;;;;5.50;3.15;;;;;;;11.20;100.00;99047.56;5017012;28;20737;-64
2023/07/07 03:26:17;;;;;;;5.15;3.45;;;;;;;11.19;100.00;99048.63;5030064;28;20033;-62
2023/07/07 03:28:43;;;;;;;5.18;2.70;;;;;;;11.18;100.00;99055.88;5030958;28;20104;-65
2023/07/07 03:31:15;;;;;;;5.55;2.47;;;;;;;11.14;100.00;99057.34;5032747;28;20436;-62
2023/07/07 03:33:43;;;;;;;7.00;3.35;;;;;;;11.12;100.00;99058.56;5029968;28;20477;-62
2023/07/07 03:36:12;;;;;;;6.10;3.25;;;;;;;11.06;100.00;99060.22;5032483;28;20040;-62
2023/07/07 03:38:38;;;;;;;5.10;2.70;;;;;;;11.09;100.00;99067.09;5032649;28;20484;-62
2023/07/07 03:41:04;;;;;;;5.30;2.72;;;;;;;11.00;100.00;99050.16;5044552;22;20041;-70
2023/07/07 03:43:33;;;;;;;6.10;2.70;;;;;;;10.98;100.00;99049.56;5027963;28;20087;-71
2023/07/07 03:46:00;;;;;;;5.68;2.85;;;;;;;11.09;100.00;99057.09;5035691;28;20466;-76
2023/07/07 03:48:25;;;;;;;5.90;3.22;;;;;;;11.07;100.00;99056.47;5030278;28;20034;-75
2023/07/07 03:50:58;;;;;;;5.72;2.63;;;;;;;11.24;100.00;99072.34;5025262;28;20521;-79
2023/07/07 03:53:25;;;;;;;7.13;2.38;;;;;;;11.26;100.00;99062.16;5042177;28;20025;-78
2023/07/07 03:55:51;;;;;;;5.07;2.53;;;;;;;11.15;100.00;99037.31;5023791;28;20120;-78
2023/07/07 03:58:16;;;;;;;5.20;3.15;;;;;;;11.29;100.00;99076.16;5031402;28;20491;-72
2023/07/07 04:00:41;;;;;;;4.57;2.90;;;;;;;11.18;100.00;99052.34;5024045;28;20079;-75
2023/07/07 04:03:07;;;;;;;4.20;2.40;;;;;;;11.24;100.00;99064.22;5014189;28;20036;-69
2023/07/07 04:05:38;;;;;;;4.65;2.33;;;;;;;11.25;100.00;99069.47;5020790;28;20561;-72
2023/07/07 04:08:04;;;;;;;5.97;2.40;;;;;;;11.32;100.00;99086.59;5028535;28;20022;-74
2023/07/07 04:10:29;;;;;;;7.60;3.42;;;;;;;11.45;100.00;99074.97;5027950;28;20517;-74
2023/07/07 04:12:55;;;;;;;5.10;2.35;;;;;;;11.47;100.00;99062.03;5026206;28;20022;-73
2023/07/07 04:15:20;;;;;;;4.65;2.60;;;;;;;11.66;100.00;99073.16;5017725;28;20040;-69
2023/07/07 04:17:45;;;;;;;8.85;2.67;;;;;;;11.63;100.00;99066.25;5023751;28;20104;-69
2023/07/07 04:20:11;;;;;;;3.80;2.70;;;;;;;11.74;100.00;99079.25;5018177;28;20476;-68
2023/07/07 04:22:36;;;;;;;6.68;2.58;;;;;;;11.83;100.00;99082.59;5021909;28;20030;-70
2023/07/07 04:25:29;;;;;;;5.45;2.60;;;;;;;12.02;100.00;99087.25;5032010;28;20557;-70
2023/07/07 04:27:55;;;;;;;4.45;2.53;;;;;;;12.00;100.00;99061.41;5023682;28;20029;-75
2023/07/07 04:30:20;;;;;;;5.95;2.92;;;;;;;12.10;100.00;99082.69;5030985;28;20164;-74
2023/07/07 04:32:46;;;;;;;6.88;3.22;;;;;;;12.20;100.00;99072.25;5029577;28;20337;-75
2023/07/07 04:35:12;;;;;;;5.60;2.30;;;;;;;12.28;100.00;99085.63;5030078;28;20036;-73
2023/07/07 04:37:37;;;;;;;4.22;2.70;;;;;;;12.34;100.00;99079.38;5026966;28;20030;-71
2023/07/07 04:40:03;;;;;;;5.63;2.40;;;;;;;12.44;100.00;99074.38;5022425;28;20038;-72
2023/07/07 04:42:28;;;;;;;7.72;2.53;;;;;;;12.50;100.00;99067.28;5038830;28;20403;-74
2023/07/07 04:44:54;;;;;;;5.93;2.50;;;;;;;12.70;100.00;99086.25;5032816;28;20037;-70
2023/07/07 04:47:19;;;;;;;6.60;2.55;;;;;;;12.72;100.00;99086.88;5029274;28;20056;-73
2023/07/07 04:49:44;;;;;;;5.38;2.55;;;;;;;12.82;100.00;99081.03;5021895;28;20555;-73
2023/07/07 04:52:10;;;;;;;6.70;2.60;;;;;;;12.89;100.00;99081.84;5026036;28;20034;-74
2023/07/07 04:54:36;;;;;;;5.82;3.13;;;;;;;13.09;100.00;99092.66;5045622;28;20390;-73
2023/07/07 04:57:03;;;;;;;7.28;2.90;;;;;;;13.08;100.00;99091.00;5028232;28;20021;-70
2023/07/07 04:59:31;;;;;;;5.10;2.90;;;;;;;13.23;100.00;99086.16;5028412;28;20083;-75
2023/07/07 05:01:57;;;;;;;7.97;2.92;;;;;;;13.36;100.00;99077.13;5032265;28;20033;-72
2023/07/07 05:04:22;;;;;;;7.72;3.20;;;;;;;13.71;100.00;99090.41;5014866;28;20022;-71
2023/07/07 05:06:47;;;;;;;3.83;2.40;;;;;;;13.76;100.00;99082.44;5020074;28;20108;-70
2023/07/07 05:09:14;;;;;;;4.82;2.55;;;;;;;13.98;100.00;99085.63;5018618;28;20068;-73
2023/07/07 05:11:39;;;;;;;5.22;3.05;;;;;;;13.99;100.00;99073.69;5025578;28;20025;-73
2023/07/07 05:14:04;;;;;;;5.88;2.47;;;;;;;14.35;100.00;99085.81;5013077;28;20079;-75
2023/07/07 05:16:36;;;;;;;7.95;2.92;;;;;;;14.60;100.00;99085.88;5025283;28;20030;-72
2023/07/07 05:19:01;;;;;;;7.57;3.20;;;;;;;14.59;100.00;99076.00;5029039;28;20101;-73
2023/07/07 05:21:27;;;;;;;4.65;2.92;;;;;;;14.70;100.00;99072.56;5031494;28;20094;-73
2023/07/07 05:23:53;;;;;;;6.65;2.90;;;;;;;14.82;100.00;99091.72;5030114;28;20490;-74
2023/07/07 05:26:27;;;;;;;6.18;2.80;;;;;;;14.84;100.00;99092.34;5030553;28;20175;-73
2023/07/07 05:28:52;;;;;;;5.00;3.20;;;;;;;14.71;100.00;99090.56;5019284;28;20034;-72
2023/07/07 05:31:18;;;;;;;4.10;2.90;;;;;;;14.56;100.00;99065.56;5017919;28;20026;-72
2023/07/07 05:33:43;;;;;;;6.65;2.88;;;;;;;14.72;100.00;99069.63;5019643;28;20564;-73
2023/07/07 05:36:09;;;;;;;6.15;2.80;;;;;;;14.98;100.00;99093.88;5028639;28;20053;-74
2023/07/07 05:38:37;;;;;;;8.45;3.30;;;;;;;15.18;100.00;99095.56;5022609;28;20033;-73
2023/07/07 05:41:02;;;;;;;5.68;2.60;;;;;;;15.40;100.00;99076.88;5028985;28;20025;-73
2023/07/07 05:43:28;;;;;;;5.57;2.90;;;;;;;15.61;100.00;99100.09;5025826;28;20131;-73
2023/07/07 05:46:05;;;;;;;4.57;2.78;;;;;;;15.86;100.00;99097.31;5027132;28;20030;-66
2023/07/07 05:48:31;;;;;;;6.55;2.95;;;;;;;16.04;100.00;99086.34;5029946;28;20136;-72
2023/07/07 05:50:58;;;;;;;4.00;2.55;;;;;;;16.34;100.00;99080.00;5018540;28;20543;-71
2023/07/07 05:53:24;;;;;;;5.28;3.03;;;;;;;16.63;100.00;99086.47;5019373;28;20538;-70
2023/07/07 05:55:50;;;;;;;6.65;2.97;;;;;;;16.86;100.00;99069.28;5024239;28;20030;-71
2023/07/07 05:58:16;;;;;;;8.45;2.80;;;;;;;17.28;100.00;99083.63;5015391;28;20026;-73
2023/07/07 06:00:42;;;;;;;7.10;3.22;;;;;;;17.47;100.00;99072.53;5018088;28;20063;-70
2023/07/07 06:03:07;;;;;;;4.15;2.72;;;;;;;17.52;100.00;99069.91;5021008;28;20030;-69
2023/07/07 06:05:33;;;;;;;4.53;2.60;;;;;;;18.00;100.00;99071.44;5029533;28;20025;-68
2023/07/07 06:07:59;;;;;;;3.50;2.30;;;;;;;18.37;100.00;99084.72;5021197;28;20040;-68
2023/07/07 06:10:25;;;;;;;6.13;2.88;;;;;;;18.53;100.00;99092.09;5022220;28;20440;-68
2023/07/07 06:12:52;;;;;;;4.93;2.70;;;;;;;18.82;100.00;99087.41;5026069;28;20077;-68
2023/07/07 06:15:17;;;;;;;6.85;3.03;;;;;;;18.89;100.00;99076.28;5028452;28;20036;-77
2023/07/07 06:17:46;;;;;;;8.85;2.85;;;;;;;19.07;100.00;99082.53;5029382;28;20056;-72
2023/07/07 06:20:13;;;;;;;4.13;2.60;;;;;;;19.34;100.00;99083.50;5020878;28;20033;-71
2023/07/07 06:22:44;;;;;;;8.02;3.30;;;;;;;19.39;100.00;99080.81;5031219;28;20029;-80
2023/07/07 06:25:09;;;;;;;6.22;2.95;;;;;;;19.35;100.00;99085.16;5030251;28;20186;-73
2023/07/07 06:27:35;;;;;;;8.13;3.45;;;;;;;19.10;100.00;99088.38;5030870;28;20104;-71
2023/07/07 06:30:01;;;;;;;6.57;3.03;;;;;;;19.26;100.00;99082.03;5028103;28;20034;-68
2023/07/07 06:32:26;;;;;;;4.43;2.55;;;;;;;19.40;100.00;99076.97;5031706;28;20036;-78
2023/07/07 06:34:51;;;;;;;7.07;2.60;;;;;;;19.83;100.00;99047.91;5030184;28;20029;-78
2023/07/07 06:37:17;;;;;;;4.15;2.35;;;;;;;20.60;100.00;99089.06;5028926;28;20022;-79
2023/07/07 06:39:42;;;;;;;5.28;2.60;;;;;;;20.86;100.00;99046.09;5041769;28;20049;-81
2023/07/07 06:42:09;;;;;;;10.10;2.30;;;;;;;21.37;100.00;99093.16;5030429;28;20025;-76
2023/07/07 06:44:37;;;;;;;4.40;2.47;;;;;;;21.20;100.00;99093.34;5043335;28;20060;-79
2023/07/07 06:47:05;;;;;;;4.65;2.33;;;;;;;21.42;87.70;99094.03;5034268;28;20026;-80
2023/07/07 06:49:30;;;;;;;11.60;2.17;;;;;;;21.94;88.74;99066.72;5035217;28;20099;-79
2023/07/07 06:51:55;;;;;;;10.00;2.35;;;;;;;22.93;85.58;99087.50;5033130;28;20025;-74
2023/07/07 06:54:21;;;;;;;4.93;2.22;;;;;;;24.35;76.45;99091.97;5034173;28;20044;-77
2023/07/07 06:56:46;;;;;;;5.45;2.22;;;;;;;27.74;64.21;99089.94;5031349;28;20507;-75
2023/07/07 06:59:11;;;;;;;9.27;2.25;;;;;;;30.12;52.81;99068.59;5025933;28;20064;-76
2023/07/07 07:01:37;;;;;;;4.07;2.28;;;;;;;31.96;45.94;99073.47;5039722;28;20025;-80
2023/07/07 07:04:02;;;;;;;4.32;2.20;;;;;;;31.97;44.66;99089.13;5058862;28;20022;-84
2023/07/07 07:06:28;;;;;;;3.58;2.13;;;;;;;32.65;43.03;99093.75;5035762;28;20025;-82
2023/07/07 07:08:59;;;;;;;6.28;2.30;;;;;;;33.76;41.95;99090.06;5046219;28;20097;-83
2023/07/07 07:11:25;;;;;;;3.17;2.00;;;;;;;35.20;38.92;99080.34;5041568;28;20025;-81
2023/07/07 07:13:50;;;;;;;3.40;2.25;;;;;;;35.87;38.86;99084.06;5027483;28;20031;-79
2023/07/07 07:16:16;;;;;;;6.13;1.92;;;;;;;36.99;36.22;99073.19;5031572;28;20105;-78
2023/07/07 07:18:41;;;;;;;4.07;2.05;;;;;;;36.49;36.19;99080.63;5029376;28;20026;-75
2023/07/07 07:21:09;;;;;;;5.03;2.10;;;;;;;37.34;35.55;99086.38;5029722;28;20164;-81
2023/07/07 07:23:34;;;;;;;5.38;2.42;;;;;;;37.60;34.67;99079.97;5048243;28;20018;-78
2023/07/07 07:25:59;;;;;;;3.58;2.10;;;;;;;37.72;34.81;99088.25;5046498;28;20028;-78
2023/07/07 07:28:25;;;;;;;4.95;2.15;;;;;;;38.34;32.73;99073.84;5050290;28;20026;-80
2023/07/07 07:30:50;;;;;;;6.18;2.28;;;;;;;38.40;32.98;99089.28;5043310;28;20120;-74
2023/07/07 07:33:20;;;;;;;6.75;2.22;;;;;;;37.97;32.88;99070.91;5028066;28;20096;-76
2023/07/07 07:35:46;;;;;;;8.43;2.50;;;;;;;38.47;32.03;99082.94;5051072;28;20463;-75
2023/07/07 07:38:17;;;;;;;9.65;2.70;;;;;;;38.20;31.84;99068.84;5038001;28;20513;-77
2023/07/07 07:40:42;;;;;;;9.32;2.80;;;;;;;39.29;31.95;99078.22;5028844;28;20036;-78
2023/07/07 07:43:08;;;;;;;8.25;2.58;;;;;;;39.35;31.29;99065.34;5030343;28;20030;-77
2023/07/07 07:45:33;;;;;;;4.90;2.10;;;;;;;39.53;30.70;99076.84;5033849;28;20029;-75
2023/07/07 07:47:59;;;;;;;7.10;2.40;;;;;;;39.41;30.69;99069.47;5028353;28;20026;-75
2023/07/07 07:50:24;;;;;;;9.65;2.88;;;;;;;40.17;30.43;99062.34;5030839;28;20032;-74
2023/07/07 07:52:50;;;;;;;6.13;2.83;;;;;;;39.36;31.34;99075.50;5025974;28;20103;-79
2023/07/07 07:55:15;;;;;;;4.68;2.38;;;;;;;39.38;30.56;99070.25;5034663;28;20021;-80
2023/07/07 07:57:42;;;;;;;5.78;2.67;;;;;;;40.27;30.07;99064.47;5030446;28;20022;-76
2023/07/07 08:00:08;;;;;;;8.55;2.80;;;;;;;40.01;30.14;99068.34;5019933;28;20406;-82
2023/07/07 08:02:35;;;;;;;6.00;2.58;;;;;;;38.99;31.32;99062.16;5031146;28;20101;-79
2023/07/07 08:05:00;;;;;;;4.72;2.70;;;;;;;40.69;29.41;99063.06;5029863;28;20057;-77
2023/07/07 08:07:26;;;;;;;5.55;2.85;;;;;;;40.54;29.52;99058.50;5031837;28;20029;-75
2023/07/07 08:09:51;;;;;;;5.10;2.88;;;;;;;39.38;30.69;99069.41;5030459;28;20179;-75
2023/07/07 08:12:17;;;;;;;7.32;2.85;;;;;;;41.59;29.00;99071.75;5046609;28;20471;-77
2023/07/07 08:14:42;;;;;;;5.95;3.00;;;;;;;41.19;28.88;99062.38;5031651;28;20032;-75
2023/07/07 08:17:11;;;;;;;4.55;2.70;;;;;;;41.84;28.68;99060.34;5027664;28;20025;-76
2023/07/07 08:19:38;;;;;;;4.13;2.33;;;;;;;42.34;28.50;99059.44;5031143;28;20026;-76
2023/07/07 08:22:07;;;;;;;5.25;2.85;;;;;;;41.15;29.46;99059.53;5031199;28;20028;-76
2023/07/07 08:24:37;;;;;;;;;;;;;;;40.03;29.97;99070.75;5032044;28;20033;-76
2023/07/07 08:27:02;;;;;;;7.72;2.97;;;;;;;41.14;29.19;99072.09;5028961;28;19964;-76
2023/07/07 08:29:28;;;;;;;3.85;2.60;;;;;;;41.47;28.98;99066.44;5028475;28;20541;-76
2023/07/07 08:31:54;;;;;;;5.40;3.08;;;;;;;41.45;29.31;99066.03;5019782;28;20033;-73
2023/07/07 08:34:20;;;;;;;7.15;3.00;;;;;;;41.08;28.98;99072.88;5034132;28;20057;-73
2023/07/07 08:36:45;;;;;;;5.72;3.03;;;;;;;41.28;29.17;99065.63;5034509;28;20022;-76
2023/07/07 08:39:21;;;;;;;9.02;2.88;;;;;;;40.43;29.90;99071.81;5032859;28;20021;-73
2023/07/07 08:42:12;;;;;;;4.72;2.97;;;;;;;40.09;30.28;99075.66;5046276;28;20018;-76
2023/07/07 08:44:37;;;;;;;6.47;2.65;;;;;;;40.40;30.04;99078.28;5014024;28;20095;-76
2023/07/07 08:47:07;;;;;;;4.20;2.75;;;;;;;39.31;30.99;99078.66;5029697;28;20475;-76
2023/07/07 08:50:14;;;;;;;5.57;2.67;;;;;;;40.11;30.18;99080.91;5018067;28;22819;-78
2023/07/07 08:53:10;;;;;;;8.80;2.72;;;;;;;40.00;30.88;99068.72;4995683;28;20086;-78
2023/07/07 08:56:12;;;;;;;5.97;2.75;;;;;;;41.66;29.03;99073.75;5029117;28;20021;-79
2023/07/07 08:58:48;;;;;;;6.55;2.95;;;;;;;39.96;30.35;99065.06;5018658;28;20026;-79
2023/07/07 09:01:31;;;;;;;4.55;2.80;;;;;;;41.34;29.10;99054.66;5019282;28;20021;-79
2023/07/07 09:04:23;;;;;;;6.80;3.08;;;;;;;40.98;29.09;99074.47;5025021;28;20395;-80
2023/07/07 09:06:58;;;;;;;3.50;2.38;;;;;;;42.39;29.09;99068.38;5032360;28;20116;-81
2023/07/07 09:09:59;;;;;;;4.75;2.80;;;;;;;42.15;28.32;99060.72;5027402;28;20028;-78
2023/07/07 09:12:31;;;;;;;5.85;3.00;;;;;;;42.62;28.11;99067.06;5014113;28;20045;-78
2023/07/07 09:15:01;;;;;;;6.47;3.17;;;;;;;43.46;27.05;99055.59;5016334;28;20040;-77
2023/07/07 09:17:36;;;;;;;4.88;2.97;;;;;;;42.64;27.51;99058.94;5038122;28;20026;-81
2023/07/07 09:20:05;;;;;;;4.82;2.88;;;;;;;43.85;26.09;99054.44;5026511;28;20021;-80
2023/07/07 09:22:38;;;;;;;4.53;3.03;;;;;;;42.67;27.62;99058.13;5032624;28;20082;-81
2023/07/07 09:25:13;;;;;;;4.03;2.92;;;;;;;42.88;26.93;99048.69;5031179;28;20086;-81
2023/07/07 09:27:43;;;;;;;5.00;3.30;;;;;;;41.76;27.22;99027.47;5031732;28;20372;-80
2023/07/07 09:30:11;;;;;;;3.90;3.13;;;;;;;41.15;26.77;99051.00;5046442;28;20033;-80
2023/07/07 09:32:37;;;;;;;5.40;3.35;;;;;;;40.25;27.98;99026.38;5045284;28;20475;-81
2023/07/07 09:35:03;;;;;;;5.82;3.17;;;;;;;40.27;27.34;99040.94;5025704;28;20125;-82
2023/07/07 09:38:01;;;;;;;4.93;3.53;;;;;;;39.58;27.56;99047.34;5032142;28;20023;-81
2023/07/07 09:43:18;;;;;;;6.28;3.60;;;;;;;43.12;26.14;99035.50;5066661;22;20075;-74
2023/07/07 09:46:07;;;;;;;5.25;3.03;;;;;;;43.94;24.80;99036.84;5062461;28;20082;-74
2023/07/07 09:48:49;;;;;;;6.30;3.47;;;;;;;43.37;25.12;99017.44;5060090;28;20111;-75
2023/07/07 09:51:42;;;;;;;4.38;3.63;;;;;;;43.20;24.75;99022.03;5054376;28;20052;-74
2023/07/07 09:54:13;;;;;;;6.25;3.47;;;;;;;42.97;24.79;99026.25;5044067;28;21761;-75
2023/07/07 09:56:49;;;;;;;7.13;4.15;;;;;;;41.55;24.92;99034.00;5041800;28;20017;-75
2023/07/07 09:59:21;;;;;;;5.75;3.85;;;;;;;41.93;24.61;99021.00;5043833;28;20108;-75
2023/07/07 10:01:51;;;;;;;6.18;4.40;;;;;;;41.15;24.57;99013.28;5043952;28;20485;-75
2023/07/07 10:04:19;;;;;;;9.68;4.28;;;;;;;42.47;24.58;99004.56;5025801;28;21729;-75
2023/07/07 10:06:51;;;;;;;4.97;3.47;;;;;;;43.85;23.36;99005.19;5041011;28;20021;-75
2023/07/07 10:09:17;;;;;;;7.07;4.72;;;;;;;44.84;22.63;99002.38;5041092;28;20083;-75
2023/07/07 10:11:43;;;;;;;6.03;4.10;;;;;;;44.10;22.48;99011.44;5041640;28;20029;-76
2023/07/07 10:14:12;;;;;;;5.78;3.85;;;;;;;44.56;22.61;99007.22;5047388;28;20279;-77
2023/07/07 10:16:50;;;;;;;7.32;3.88;;;;;;;41.39;25.11;99000.31;5047757;28;20028;-75
2023/07/07 10:19:16;;;;;;;6.10;3.95;;;;;;;43.27;23.82;99005.72;5047362;28;20055;-75
2023/07/07 10:21:43;;;;;;;4.93;3.53;;;;;;;43.04;23.71;98991.22;5050336;28;20069;-76
2023/07/07 10:24:13;;;;;;;4.80;3.58;;;;;;;44.00;23.56;99000.19;5047694;28;20053;-75
2023/07/07 10:26:42;;;;;;;5.25;4.05;;;;;;;42.21;24.30;99002.19;5042175;28;20037;-75
2023/07/07 10:29:12;;;;;;;6.65;3.90;;;;;;;41.82;24.90;98994.59;5036196;28;20125;-75
2023/07/07 10:31:46;;;;;;;4.85;3.60;;;;;;;42.24;25.14;98990.03;5048397;28;20573;-75
2023/07/07 10:34:31;;;;;;;5.22;3.72;;;;;;;40.97;25.45;98999.06;5037897;28;20111;-76
2023/07/07 10:36:57;;;;;;;5.93;4.20;;;;;;;42.60;24.78;98993.50;5043881;28;20103;-75
2023/07/07 10:39:26;;;;;;;5.78;4.03;;;;;;;44.09;23.86;98994.75;5044628;28;20044;-75
2023/07/07 10:41:51;;;;;;;6.40;4.10;;;;;;;43.31;23.24;98989.41;5047185;28;20094;-75
2023/07/07 10:44:17;;;;;;;7.28;4.78;;;;;;;41.37;24.52;98994.22;5051215;28;20029;-75
2023/07/07 10:46:42;;;;;;;6.00;4.30;;;;;;;42.24;23.84;98995.72;5046089;28;20147;-75
2023/07/07 10:49:15;;;;;;;8.45;4.78;;;;;;;41.10;24.84;98991.78;5031004;28;20035;-76
2023/07/07 10:51:55;;;;;;;7.70;5.28;;;;;;;42.34;23.43;98988.34;5026368;28;20048;-75
2023/07/07 10:54:33;;;;;;;7.45;4.80;;;;;;;42.52;23.21;98991.13;5055588;28;20043;-74
2023/07/07 10:57:16;;;;;;;8.50;5.00;;;;;;;43.62;22.73;98980.97;5044953;28;20126;-75
2023/07/07 10:59:59;;;;;;;6.80;4.72;;;;;;;42.85;22.86;98981.19;5048671;28;20029;-74
2023/07/07 11:02:44;;;;;;;5.65;4.65;;;;;;;43.45;23.30;98971.38;5039601;28;20424;-74
2023/07/07 11:05:39;;;;;;;6.53;4.90;;;;;;;42.50;23.46;98973.66;5049776;28;20490;-74
2023/07/07 11:08:11;;;;;;;7.38;5.05;;;;;;;42.98;22.80;98976.63;5049246;28;20051;-74
2023/07/07 11:10:55;;;;;;;6.82;5.13;;;;;;;42.31;22.84;98975.75;5052003;28;20054;-73
2023/07/07 11:13:42;;;;;;;8.00;4.93;;;;;;;41.94;24.30;98974.28;5048531;28;20032;-74
2023/07/07 11:16:38;;;;;;;7.72;4.75;;;;;;;42.94;22.23;98975.84;5030773;28;20041;-74
2023/07/07 11:19:21;;;;;;;7.97;5.15;;;;;;;42.83;22.30;98970.22;5031974;28;20025;-74
2023/07/07 11:22:01;;;;;;;12.15;5.75;;;;;;;42.65;22.15;98972.34;5049714;28;20125;-76
2023/07/07 11:24:48;;;;;;;8.15;5.57;;;;;;;42.75;22.78;98968.63;5051224;28;20051;-75
2023/07/07 11:27:30;;;;;;;7.05;5.47;;;;;;;41.35;23.48;98962.59;5046774;28;20060;-76
2023/07/07 11:30:26;;;;;;;8.95;6.07;;;;;;;41.37;23.77;98972.34;5040061;28;20028;-76
2023/07/07 11:32:57;;;;;;;7.90;5.75;;;;;;;41.95;22.58;98978.75;5042595;28;20052;-85
2023/07/07 11:35:47;;;;;;;9.40;5.88;;;;;;;42.18;23.11;98971.75;5026639;28;20476;-77
2023/07/07 11:38:18;;;;;;;9.18;6.22;;;;;;;41.90;22.87;98969.81;5048653;28;20025;-76
2023/07/07 11:41:11;;;;;;;7.88;5.75;;;;;;;41.04;23.78;98967.03;5033172;28;20058;-76
2023/07/07 11:44:01;;;;;;;8.38;6.22;;;;;;;41.92;22.36;98967.34;5029648;28;20020;-76